Time;durP1;ratioP1;P1;durP2;ratioP2;P2;SDS_P1;SDS_P2;PMS_P1;PMS_P2;Temp;Humidity;BMP_temperature;BMP_pressure;BME280_temperature;BME280_humidity;BME280_pressure;Samples;Min_cycle;Max_cycle;Signal;HPM_P1;HPM_P2
2024/01/10 00:02:21;;;;;;;19.20;10.38;;;;;;;-2.43;73.32;103667.50;7393764;19;20052;-54
2024/01/10 00:04:50;;;;;;;20.00;10.93;;;;;;;-2.41;73.31;103667.53;7394860;19;20037;-60
2024/01/10 00:07:18;;;;;;;19.50;10.50;;;;;;;-2.38;73.04;103672.81;7394980;19;20019;-56
2024/01/10 00:09:46;;;;;;;18.15;10.35;;;;;;;-2.52;73.55;103668.16;7393389;19;20062;-57
2024/01/10 00:12:14;;;;;;;19.38;11.18;;;;;;;-2.40;73.15;103665.00;7394337;19;20502;-55
2024/01/10 00:14:43;;;;;;;19.92;11.50;;;;;;;-2.33;72.62;103666.91;7394292;19;20021;-53
2024/01/10 00:17:11;;;;;;;18.63;11.13;;;;;;;-2.36;72.38;103658.19;7394464;19;20014;-54
2024/01/10 00:19:39;;;;;;;18.33;10.98;;;;;;;-2.35;72.58;103653.03;7392168;19;20042;-55
2024/01/10 00:22:07;;;;;;;17.48;10.55;;;;;;;-2.42;72.75;103652.81;7394228;19;20014;-55
2024/01/10 00:24:36;;;;;;;17.60;11.07;;;;;;;-2.98;73.74;103650.38;7394506;19;20046;-59
2024/01/10 00:27:05;;;;;;;20.13;11.55;;;;;;;-2.73;74.50;103651.97;7394239;19;20366;-55
2024/01/10 00:29:33;;;;;;;20.85;12.15;;;;;;;-2.55;73.19;103631.72;7392644;19;20475;-57
2024/01/10 00:32:04;;;;;;;18.48;11.40;;;;;;;-2.52;73.49;103628.31;7394164;19;20018;-54
2024/01/10 00:34:32;;;;;;;17.90;11.13;;;;;;;-2.50;73.00;103630.13;7392147;19;20052;-56
2024/01/10 00:37:00;;;;;;;17.98;10.82;;;;;;;-2.49;73.18;103628.41;7394162;19;20022;-54
2024/01/10 00:39:28;;;;;;;19.30;11.30;;;;;;;-2.66;73.86;103621.91;7391771;19;20026;-54
2024/01/10 00:41:57;;;;;;;20.75;11.82;;;;;;;-2.70;73.30;103618.34;7390919;19;20372;-58
2024/01/10 00:44:25;;;;;;;20.02;11.82;;;;;;;-2.66;72.56;103619.31;7393776;19;20020;-54
2024/01/10 00:46:53;;;;;;;21.58;12.07;;;;;;;-2.61;71.72;103620.31;7393590;19;20010;-55
2024/01/10 00:49:21;;;;;;;17.80;10.88;;;;;;;-2.59;71.81;103613.47;7390320;19;20022;-54
2024/01/10 00:51:49;;;;;;;18.40;10.98;;;;;;;-2.64;72.31;103612.44;7393081;19;20018;-56
2024/01/10 00:54:17;;;;;;;17.55;10.18;;;;;;;-2.58;72.16;103615.22;7393599;19;20022;-55
2024/01/10 00:56:45;;;;;;;19.23;10.88;;;;;;;-2.62;72.29;103609.06;7393564;19;20019;-61
2024/01/10 00:59:13;;;;;;;18.38;11.70;;;;;;;-2.62;72.92;103600.41;7391343;19;20483;-54
2024/01/10 01:01:41;;;;;;;17.58;10.77;;;;;;;-2.55;73.28;103600.59;7391808;19;20018;-59
2024/01/10 01:04:09;;;;;;;19.63;11.05;;;;;;;-2.43;72.79;103599.19;7392807;19;20048;-55
2024/01/10 01:06:37;;;;;;;22.63;12.65;;;;;;;-2.50;73.31;103596.41;7392848;19;20498;-53
2024/01/10 01:09:05;;;;;;;19.30;11.65;;;;;;;-2.53;73.31;103587.66;7389638;19;20010;-55
2024/01/10 01:11:33;;;;;;;19.63;12.40;;;;;;;-2.41;73.17;103602.66;7392649;19;20014;-54
2024/01/10 01:14:01;;;;;;;20.90;11.90;;;;;;;-2.56;73.94;103600.53;7392635;19;20022;-55
2024/01/10 01:16:29;;;;;;;21.20;11.95;;;;;;;-2.42;73.49;103600.94;7392554;19;20019;-56
2024/01/10 01:18:57;;;;;;;20.63;11.52;;;;;;;-2.55;73.69;103602.34;7390941;19;20011;-56
2024/01/10 01:21:25;;;;;;;19.40;11.23;;;;;;;-2.42;73.39;103600.94;7391061;19;20114;-57
2024/01/10 01:23:54;;;;;;;17.70;11.20;;;;;;;-2.36;72.94;103598.50;7392057;19;20014;-53
2024/01/10 01:26:22;;;;;;;18.67;11.18;;;;;;;-2.51;73.28;103598.97;7390759;19;20025;-53
2024/01/10 01:28:50;;;;;;;20.48;11.02;;;;;;;-2.68;73.24;103597.63;7391009;19;20094;-52
2024/01/10 01:31:18;;;;;;;20.90;11.85;;;;;;;-2.66;74.10;103603.75;7392032;19;20018;-56
2024/01/10 01:33:47;;;;;;;18.88;11.88;;;;;;;-2.59;73.52;103603.97;7392190;19;20015;-57
2024/01/10 01:36:15;;;;;;;19.27;11.68;;;;;;;-2.81;74.24;103611.97;7392642;19;20378;-57
2024/01/10 01:38:43;;;;;;;19.30;11.68;;;;;;;-3.01;74.72;103617.47;7390806;19;20027;-57
2024/01/10 01:41:12;;;;;;;19.08;11.50;;;;;;;-3.13;74.90;103622.28;7390412;19;20384;-56
2024/01/10 01:43:40;;;;;;;19.00;11.52;;;;;;;-3.34;75.46;103616.47;7390002;19;20023;-58
2024/01/10 01:46:09;;;;;;;19.92;11.32;;;;;;;-3.48;76.09;103616.06;7392152;19;20010;-57
2024/01/10 01:48:37;;;;;;;18.92;11.63;;;;;;;-3.34;76.15;103622.53;7391799;19;20014;-58
2024/01/10 01:51:07;;;;;;;18.08;11.65;;;;;;;-3.11;75.63;103625.81;7391190;19;20030;-52
2024/01/10 01:53:35;;;;;;;18.27;11.52;;;;;;;-2.72;74.08;103617.41;7397093;19;20010;-57
2024/01/10 01:56:08;;;;;;;20.42;11.65;;;;;;;-2.68;72.98;103608.00;7399015;19;20046;-57
2024/01/10 01:58:37;;;;;;;19.15;11.73;;;;;;;-2.73;72.90;103618.25;7397970;19;20046;-53
2024/01/10 02:01:06;;;;;;;17.85;10.90;;;;;;;-2.94;73.75;103610.75;7395200;19;20039;-53
2024/01/10 02:03:34;;;;;;;18.02;10.90;;;;;;;-2.78;73.46;103610.34;7399379;19;20025;-54
2024/01/10 02:06:03;;;;;;;18.27;11.05;;;;;;;-2.83;73.36;103613.63;7397339;19;20490;-53
2024/01/10 02:08:35;;;;;;;19.85;11.43;;;;;;;-2.91;73.98;103613.44;7397875;19;20018;-56
2024/01/10 02:11:04;;;;;;;18.25;11.15;;;;;;;-3.16;75.13;103606.69;7398535;19;20039;-53
2024/01/10 02:13:33;;;;;;;19.45;11.68;;;;;;;-2.83;74.52;103605.88;7399039;19;20029;-53
2024/01/10 02:16:03;;;;;;;20.27;11.73;;;;;;;-2.70;73.66;103611.44;7398730;19;20038;-53
2024/01/10 02:18:31;;;;;;;19.50;11.07;;;;;;;-2.56;73.03;103613.50;7397548;19;20031;-56
2024/01/10 02:21:00;;;;;;;21.02;12.05;;;;;;;-2.63;73.08;103611.59;7396610;19;20086;-57
2024/01/10 02:23:29;;;;;;;18.70;11.07;;;;;;;-2.75;73.58;103604.34;7398038;19;20018;-58
2024/01/10 02:25:57;;;;;;;16.65;10.70;;;;;;;-2.67;73.21;103607.16;7397033;19;20022;-58
2024/01/10 02:28:25;;;;;;;19.15;11.55;;;;;;;-2.57;73.06;103602.28;7396404;19;20022;-58
2024/01/10 02:30:54;;;;;;;21.45;11.70;;;;;;;-2.65;72.85;103603.78;7397968;19;20047;-59
2024/01/10 02:33:23;;;;;;;20.75;12.05;;;;;;;-2.70;72.89;103593.28;7398836;19;20075;-58
2024/01/10 02:35:51;;;;;;;19.63;11.38;;;;;;;-2.79;73.77;103593.03;7398868;19;20018;-56
2024/01/10 02:38:21;;;;;;;18.50;11.02;;;;;;;-2.68;73.37;103590.72;7398993;19;20017;-57
2024/01/10 02:40:49;;;;;;;19.50;12.07;;;;;;;-2.65;73.19;103597.72;7397498;19;20039;-58
2024/01/10 02:43:18;;;;;;;17.95;11.13;;;;;;;-2.72;73.10;103583.69;7398971;19;20022;-59
2024/01/10 02:45:46;;;;;;;19.67;11.43;;;;;;;-2.75;73.06;103586.19;7398983;19;20029;-59
2024/01/10 02:48:14;;;;;;;18.42;11.27;;;;;;;-2.84;73.30;103586.84;7398762;19;20021;-58
2024/01/10 02:50:45;;;;;;;18.85;10.88;;;;;;;-2.72;73.21;103586.28;7397386;19;20039;-54
2024/01/10 02:53:13;;;;;;;18.95;11.77;;;;;;;-2.74;72.81;103568.13;7398496;19;20025;-56
2024/01/10 02:55:43;;;;;;;15.70;10.23;;;;;;;-2.80;73.43;103582.63;7397947;19;20363;-55
2024/01/10 02:58:11;;;;;;;20.17;12.45;;;;;;;-2.84;73.48;103573.00;7397631;19;20022;-57
2024/01/10 03:00:39;;;;;;;20.00;11.68;;;;;;;-2.82;73.28;103582.59;7396465;19;20014;-58
2024/01/10 03:03:11;;;;;;;19.65;10.80;;;;;;;-2.80;73.46;103583.50;7394522;19;20074;-57
2024/01/10 03:05:39;;;;;;;18.50;11.55;;;;;;;-2.75;73.12;103584.53;7395389;19;20015;-58
2024/01/10 03:08:07;;;;;;;18.63;11.93;;;;;;;-2.78;72.96;103592.22;7396853;19;20081;-56
2024/01/10 03:10:35;;;;;;;18.60;11.70;;;;;;;-2.91;73.72;103587.50;7393699;19;20032;-57
2024/01/10 03:13:03;;;;;;;20.88;11.35;;;;;;;-2.78;73.72;103586.16;7396683;19;20011;-58
2024/01/10 03:15:31;;;;;;;18.88;11.30;;;;;;;-2.65;72.86;103587.34;7396534;19;20028;-58
2024/01/10 03:18:00;;;;;;;19.63;11.40;;;;;;;-2.69;72.91;103581.19;7396793;19;20015;-57
2024/01/10 03:20:29;;;;;;;17.15;10.90;;;;;;;-2.90;73.24;103578.91;7391684;19;20030;-53
2024/01/10 03:22:57;;;;;;;18.90;11.95;;;;;;;-2.87;73.33;103578.97;7396283;19;20043;-56
2024/01/10 03:25:25;;;;;;;19.33;10.93;;;;;;;-2.81;73.21;103575.69;7396476;19;20018;-57
2024/01/10 03:27:53;;;;;;;17.58;10.70;;;;;;;-2.84;73.19;103568.69;7396493;19;20025;-57
2024/01/10 03:30:24;;;;;;;18.45;11.20;;;;;;;-3.09;73.83;103567.16;7391785;19;20788;-56
2024/01/10 03:32:52;;;;;;;18.50;11.45;;;;;;;-3.02;73.64;103561.28;7394810;19;20022;-57
2024/01/10 03:35:20;;;;;;;21.10;12.68;;;;;;;-2.98;73.30;103560.56;7396173;19;20043;-58
2024/01/10 03:37:48;;;;;;;22.20;13.23;;;;;;;-2.95;73.18;103564.91;7395572;19;20499;-58
2024/01/10 03:40:16;;;;;;;22.45;13.57;;;;;;;-3.01;73.24;103559.59;7393363;19;20029;-57
2024/01/10 03:42:44;;;;;;;21.25;13.25;;;;;;;-3.03;73.06;103551.75;7395763;19;20018;-60
2024/01/10 03:45:16;;;;;;;23.25;14.30;;;;;;;-3.20;73.83;103555.59;7395761;19;20019;-56
2024/01/10 03:47:52;;;;;;;24.38;14.85;;;;;;;-3.15;73.52;103550.53;7395720;19;20030;-58
2024/01/10 03:50:20;;;;;;;26.52;15.07;;;;;;;-3.11;73.41;103553.25;7392735;19;20023;-57
2024/01/10 03:52:48;;;;;;;26.00;14.68;;;;;;;-3.22;73.51;103550.34;7394925;19;20388;-59
2024/01/10 03:55:16;;;;;;;27.35;15.18;;;;;;;-3.21;73.45;103544.31;7395357;19;20036;-58
2024/01/10 03:57:44;;;;;;;24.48;14.38;;;;;;;-3.07;73.38;103555.09;7394374;19;20352;-59
2024/01/10 04:00:12;;;;;;;22.45;13.68;;;;;;;-3.13;72.93;103562.69;7392862;19;20570;-58
2024/01/10 04:02:40;;;;;;;23.83;14.15;;;;;;;-3.37;73.80;103573.22;7392670;19;20025;-57
2024/01/10 04:05:11;;;;;;;24.27;14.07;;;;;;;-3.33;73.81;103577.66;7394937;19;20025;-57
2024/01/10 04:07:41;;;;;;;23.42;13.90;;;;;;;-3.63;75.12;103576.75;7393480;19;20033;-55
2024/01/10 04:10:10;;;;;;;24.58;14.23;;;;;;;-3.37;74.67;103583.59;7392780;19;20022;-57
2024/01/10 04:12:39;;;;;;;24.48;14.63;;;;;;;-3.22;74.27;103563.31;7394343;19;20018;-58
2024/01/10 04:15:07;;;;;;;24.80;14.95;;;;;;;-3.35;74.57;103561.22;7393580;19;20022;-58
2024/01/10 04:17:35;;;;;;;26.40;14.57;;;;;;;-3.28;74.31;103560.56;7392832;19;20787;-59
2024/01/10 04:20:04;;;;;;;24.95;14.63;;;;;;;-3.08;73.64;103553.34;7391990;19;20952;-60
2024/01/10 04:22:32;;;;;;;24.25;13.90;;;;;;;-3.07;73.17;103531.78;7392837;19;20022;-59
2024/01/10 04:25:01;;;;;;;25.63;14.18;;;;;;;-3.10;73.19;103546.34;7394342;19;20031;-58
2024/01/10 04:27:29;;;;;;;23.23;13.45;;;;;;;-3.10;73.39;103551.53;7394167;19;20018;-60
2024/01/10 04:29:58;;;;;;;24.33;13.98;;;;;;;-3.05;73.33;103562.91;7391572;19;20047;-61
2024/01/10 04:32:26;;;;;;;24.52;13.98;;;;;;;-2.99;73.04;103560.50;7394369;19;20018;-57
2024/01/10 04:34:54;;;;;;;24.55;14.20;;;;;;;-3.03;72.93;103561.25;7394167;19;20018;-57
2024/01/10 04:37:22;;;;;;;24.55;14.43;;;;;;;-3.02;72.79;103563.88;7393779;19;20487;-58
2024/01/10 04:39:50;;;;;;;25.95;14.50;;;;;;;-3.14;72.85;103566.13;7390236;19;20018;-58
2024/01/10 04:42:18;;;;;;;23.35;13.40;;;;;;;-3.16;73.17;103562.63;7389449;19;20022;-58
2024/01/10 04:44:46;;;;;;;24.45;13.88;;;;;;;-3.10;72.92;103561.91;7391774;19;20023;-57
2024/01/10 04:47:14;;;;;;;23.73;13.43;;;;;;;-3.13;72.72;103560.09;7393251;19;20508;-58
2024/01/10 04:49:43;;;;;;;23.27;13.60;;;;;;;-3.12;72.84;103558.41;7391720;19;20019;-57
2024/01/10 04:52:12;;;;;;;24.17;13.57;;;;;;;-3.23;72.95;103548.59;7392900;19;20508;-54
2024/01/10 04:54:40;;;;;;;24.42;13.70;;;;;;;-3.18;72.78;103556.50;7391927;19;20101;-55
2024/01/10 04:57:08;;;;;;;21.75;12.50;;;;;;;-3.18;72.81;103556.50;7388313;19;20475;-57
2024/01/10 04:59:36;;;;;;;22.45;13.15;;;;;;;-3.21;72.80;103546.03;7390989;19;20085;-58
2024/01/10 05:02:04;;;;;;;23.58;13.05;;;;;;;-3.23;72.76;103551.19;7390307;19;20030;-56
2024/01/10 05:04:32;;;;;;;24.83;14.38;;;;;;;-3.21;72.94;103543.44;7391271;19;20078;-58
2024/01/10 05:07:00;;;;;;;26.38;13.60;;;;;;;-3.28;72.91;103541.50;7391405;19;20024;-59
2024/01/10 05:09:28;;;;;;;23.50;13.40;;;;;;;-3.27;73.14;103540.72;7391386;19;20043;-58
2024/01/10 05:11:56;;;;;;;23.80;13.45;;;;;;;-3.31;72.99;103538.88;7393045;19;20014;-58
2024/01/10 05:14:24;;;;;;;25.75;14.73;;;;;;;-3.35;73.13;103550.84;7392050;19;20827;-57
2024/01/10 05:16:53;;;;;;;25.83;13.68;;;;;;;-3.23;73.02;103542.53;7393380;19;20039;-58
2024/01/10 05:19:21;;;;;;;24.40;13.73;;;;;;;-3.40;73.56;103536.00;7390847;19;20022;-57
2024/01/10 05:21:50;;;;;;;23.75;13.13;;;;;;;-3.37;73.50;103539.53;7391571;19;20018;-55
2024/01/10 05:24:19;;;;;;;21.90;13.00;;;;;;;-3.30;72.99;103536.31;7391072;19;20047;-57
2024/01/10 05:26:51;;;;;;;25.67;14.15;;;;;;;-3.30;73.20;103543.19;7388863;19;20014;-57
2024/01/10 05:29:19;;;;;;;24.55;13.77;;;;;;;-3.31;73.19;103542.34;7389255;19;20022;-56
2024/01/10 05:31:47;;;;;;;23.38;13.25;;;;;;;-3.35;73.54;103539.63;7391670;19;20515;-58
2024/01/10 05:34:16;;;;;;;24.80;13.98;;;;;;;-3.22;73.30;103536.53;7391810;19;20019;-58
2024/01/10 05:36:44;;;;;;;27.27;14.60;;;;;;;-3.15;73.27;103535.88;7391914;19;20070;-58
2024/01/10 05:39:15;;;;;;;22.92;13.10;;;;;;;-3.07;72.93;103536.06;7390629;19;20015;-58
2024/01/10 05:41:44;;;;;;;23.95;13.75;;;;;;;-3.25;73.21;103536.44;7391082;19;20360;-58
2024/01/10 05:44:14;;;;;;;24.58;14.82;;;;;;;-3.12;73.54;103533.38;7391743;19;20046;-58
2024/01/10 05:46:43;;;;;;;26.02;14.85;;;;;;;-3.03;72.90;103535.31;7391572;19;20034;-58
2024/01/10 05:49:11;;;;;;;24.10;14.52;;;;;;;-3.11;73.29;103536.84;7390176;19;20039;-58
2024/01/10 05:51:39;;;;;;;26.90;14.82;;;;;;;-3.20;73.75;103535.75;7390854;19;20022;-57
2024/01/10 05:54:07;;;;;;;26.27;15.02;;;;;;;-3.01;73.44;103536.25;7391618;19;20043;-57
2024/01/10 05:56:35;;;;;;;26.15;14.98;;;;;;;-3.10;73.41;103529.09;7390809;19;20023;-57
2024/01/10 05:59:03;;;;;;;26.08;14.68;;;;;;;-3.16;73.57;103536.72;7389963;19;20042;-56
2024/01/10 06:01:32;;;;;;;27.33;15.40;;;;;;;-3.22;73.91;103531.34;7391078;19;20014;-58
2024/01/10 06:04:01;;;;;;;24.30;14.90;;;;;;;-3.13;73.73;103525.53;7390920;19;20074;-57
2024/01/10 06:06:29;;;;;;;26.45;14.77;;;;;;;-3.01;73.35;103529.34;7391117;19;20014;-57
2024/01/10 06:08:57;;;;;;;24.88;14.50;;;;;;;-3.03;72.98;103532.72;7389738;19;20015;-58
2024/01/10 06:11:25;;;;;;;24.60;14.50;;;;;;;-3.06;73.10;103523.16;7390851;19;20023;-58
2024/01/10 06:13:54;;;;;;;26.00;14.85;;;;;;;-3.03;72.99;103520.66;7391075;19;20010;-57
2024/01/10 06:16:24;;;;;;;23.98;14.70;;;;;;;-3.08;73.17;103505.81;7390582;19;20021;-58
2024/01/10 06:18:52;;;;;;;24.98;14.13;;;;;;;-3.01;72.83;103516.41;7389053;19;20033;-59
2024/01/10 06:21:21;;;;;;;24.45;14.02;;;;;;;-3.03;72.80;103512.88;7390216;19;20015;-59
2024/01/10 06:23:49;;;;;;;23.05;14.05;;;;;;;-3.13;72.95;103499.63;7389420;19;20022;-58
2024/01/10 06:26:17;;;;;;;25.20;14.02;;;;;;;-2.99;72.53;103519.03;7390653;19;20043;-56
2024/01/10 06:28:45;;;;;;;25.23;14.35;;;;;;;-2.99;72.45;103519.03;7393031;19;20051;-59
2024/01/10 06:31:13;;;;;;;24.45;14.35;;;;;;;-3.13;72.84;103517.75;7388309;19;20387;-58
2024/01/10 06:33:42;;;;;;;26.33;14.68;;;;;;;-3.22;73.25;103511.47;7390224;19;20031;-58
2024/01/10 06:36:10;;;;;;;24.40;13.50;;;;;;;-3.19;73.14;103511.56;7389020;19;20377;-58
2024/01/10 06:38:39;;;;;;;24.30;14.70;;;;;;;-3.10;73.03;103517.84;7392630;19;20047;-58
2024/01/10 06:41:13;;;;;;;23.48;13.63;;;;;;;-3.02;72.67;103524.13;7396113;19;20078;-57
2024/01/10 06:43:42;;;;;;;;;;;;;;;-3.00;72.41;103525.03;7395405;19;20376;-58
2024/01/10 06:46:11;;;;;;;24.67;13.23;;;;;;;-3.03;72.68;103524.97;7401655;19;20344;-57
2024/01/10 06:48:39;;;;;;;24.60;13.80;;;;;;;-3.07;72.83;103520.53;7395852;19;20018;-58
2024/01/10 06:51:12;;;;;;;22.05;12.63;;;;;;;-2.96;72.74;103527.75;7397329;19;20017;-58
2024/01/10 06:53:40;;;;;;;23.25;13.73;;;;;;;-2.93;72.97;103526.97;7395385;19;20011;-58
2024/01/10 06:56:09;;;;;;;22.65;13.25;;;;;;;-3.06;73.10;103523.16;7396730;19;20022;-58
2024/01/10 06:58:39;;;;;;;21.95;12.88;;;;;;;-2.96;72.83;103532.06;7398977;19;20047;-60
2024/01/10 07:01:13;;;;;;;24.80;13.57;;;;;;;-3.02;73.10;103524.13;7395521;19;20026;-59
2024/01/10 07:03:42;;;;;;;21.98;12.63;;;;;;;-2.93;72.88;103529.56;7394857;19;20514;-58
2024/01/10 07:06:14;;;;;;;23.98;13.55;;;;;;;-2.97;72.73;103536.38;7397186;19;20554;-55
2024/01/10 07:08:46;;;;;;;23.60;13.73;;;;;;;-3.16;72.78;103523.75;7395257;19;20047;-60
2024/01/10 07:11:15;;;;;;;23.98;13.65;;;;;;;-3.06;73.26;103533.53;7396707;19;20128;-55
2024/01/10 07:13:43;;;;;;;24.63;13.27;;;;;;;-3.05;72.96;103534.38;7397003;19;20018;-56
2024/01/10 07:16:14;;;;;;;24.33;14.70;;;;;;;-3.07;72.97;103523.13;7396663;19;20121;-56
2024/01/10 07:18:43;;;;;;;25.65;14.05;;;;;;;-3.01;72.82;103525.91;7395364;19;20467;-57
2024/01/10 07:21:11;;;;;;;25.83;14.18;;;;;;;-2.93;73.02;103526.09;7394804;19;20040;-58
2024/01/10 07:23:40;;;;;;;26.20;13.77;;;;;;;-2.97;72.55;103527.72;7393910;19;20034;-57
2024/01/10 07:26:09;;;;;;;27.83;15.10;;;;;;;-2.90;72.46;103540.03;7395975;19;20014;-55
2024/01/10 07:28:38;;;;;;;27.48;14.50;;;;;;;-2.95;72.67;103547.66;7398609;19;20089;-56
2024/01/10 07:31:06;;;;;;;28.55;15.45;;;;;;;-2.95;72.70;103546.78;7395932;19;20020;-57
2024/01/10 07:33:34;;;;;;;25.90;14.38;;;;;;;-2.86;72.50;103543.53;7394589;19;20018;-58
2024/01/10 07:36:02;;;;;;;27.77;14.80;;;;;;;-3.04;72.56;103542.22;7396790;19;20018;-58
2024/01/10 07:38:30;;;;;;;26.98;14.88;;;;;;;-3.24;73.10;103538.22;7395394;19;20022;-59
2024/01/10 07:40:59;;;;;;;28.13;14.85;;;;;;;-3.21;73.69;103554.69;7396736;19;20014;-57
2024/01/10 07:43:28;;;;;;;30.23;15.77;;;;;;;-3.28;73.29;103550.19;7393076;19;20011;-56
2024/01/10 07:45:57;;;;;;;27.48;15.73;;;;;;;-3.51;74.31;103546.94;7395610;19;20046;-58
2024/01/10 07:48:25;;;;;;;27.27;14.85;;;;;;;-3.22;73.72;103547.75;7395520;19;20015;-58
2024/01/10 07:50:54;;;;;;;27.45;15.48;;;;;;;-3.12;73.36;103559.28;7394582;19;20130;-57
2024/01/10 07:53:25;;;;;;;28.63;14.85;;;;;;;-3.09;73.08;103559.38;7395232;19;20102;-56
2024/01/10 07:55:54;;;;;;;26.65;15.30;;;;;;;-3.14;73.37;103557.47;7393985;19;20088;-57
2024/01/10 07:58:22;;;;;;;27.75;14.65;;;;;;;-3.08;73.46;103568.91;7397909;19;20022;-58
2024/01/10 08:00:51;;;;;;;26.98;15.18;;;;;;;-3.36;73.74;103571.50;7393026;19;20021;-58
2024/01/10 08:03:19;;;;;;;27.27;14.95;;;;;;;-3.39;74.03;103574.91;7393028;19;20022;-58
2024/01/10 08:05:47;;;;;;;29.90;16.25;;;;;;;-3.51;74.94;103572.84;7394596;19;20018;-58
2024/01/10 08:08:16;;;;;;;32.10;16.55;;;;;;;-3.23;74.27;103556.38;7393409;19;20021;-58
2024/01/10 08:10:44;;;;;;;30.00;15.18;;;;;;;-3.06;73.38;103558.56;7394089;19;20035;-58
2024/01/10 08:13:12;;;;;;;30.27;17.00;;;;;;;-2.99;73.19;103557.91;7393199;19;20018;-57
2024/01/10 08:15:41;;;;;;;30.95;16.55;;;;;;;-2.97;72.87;103553.66;7392875;19;20022;-58
2024/01/10 08:18:09;;;;;;;29.15;15.68;;;;;;;-2.97;73.09;103559.72;7394344;19;20474;-58
2024/01/10 08:20:38;;;;;;;29.98;15.93;;;;;;;-2.93;72.78;103559.81;7393895;19;20007;-57
2024/01/10 08:23:06;;;;;;;27.25;14.57;;;;;;;-2.80;72.56;103560.16;7392862;19;20010;-56
2024/01/10 08:25:34;;;;;;;26.63;15.18;;;;;;;-2.81;72.48;103562.72;7394455;19;20014;-59
2024/01/10 08:28:02;;;;;;;29.17;15.52;;;;;;;-2.70;72.35;103556.09;7396381;19;20014;-58
2024/01/10 08:30:30;;;;;;;29.20;15.43;;;;;;;-2.71;72.23;103563.00;7391550;19;20022;-57
2024/01/10 08:33:00;;;;;;;28.30;15.05;;;;;;;-2.75;72.41;103558.59;7392267;19;20022;-56
2024/01/10 08:35:31;;;;;;;27.30;14.68;;;;;;;-2.71;72.27;103560.41;7393905;19;20035;-58
2024/01/10 08:38:00;;;;;;;28.58;14.52;;;;;;;-2.76;72.47;103551.63;7393890;19;20349;-58
2024/01/10 08:40:29;;;;;;;28.98;15.35;;;;;;;-2.73;72.50;103556.03;7390931;19;20022;-58
2024/01/10 08:43:00;;;;;;;30.52;15.57;;;;;;;-2.78;72.88;103555.91;7393074;19;20757;-57
2024/01/10 08:45:28;;;;;;;31.17;15.48;;;;;;;-2.59;72.27;103552.09;7393322;19;20043;-58
2024/01/10 08:47:57;;;;;;;28.10;14.65;;;;;;;-2.64;72.54;103556.25;7392038;19;20026;-54
2024/01/10 08:50:26;;;;;;;27.13;14.68;;;;;;;-2.58;72.50;103560.75;7390133;19;20023;-58
2024/01/10 08:52:54;;;;;;;30.05;15.50;;;;;;;-2.65;72.95;103558.81;7392999;19;20023;-59
2024/01/10 08:55:22;;;;;;;27.92;14.88;;;;;;;-2.54;72.92;103558.25;7391938;19;20486;-59
2024/01/10 08:57:50;;;;;;;28.75;15.07;;;;;;;-2.55;72.59;103547.84;7393566;19;20033;-58
2024/01/10 09:00:18;;;;;;;30.70;15.20;;;;;;;-2.49;72.61;103548.00;7390855;19;20364;-59
2024/01/10 09:02:46;;;;;;;28.33;15.10;;;;;;;-2.38;72.53;103550.88;7389906;19;20086;-58
2024/01/10 09:05:14;;;;;;;29.00;14.57;;;;;;;-2.48;72.65;103553.25;7392685;19;20022;-59
2024/01/10 09:07:42;;;;;;;28.50;14.45;;;;;;;-2.33;72.25;103552.72;7392439;19;20046;-58
2024/01/10 09:10:11;;;;;;;26.77;15.15;;;;;;;-2.34;72.13;103544.91;7390814;19;20036;-59
2024/01/10 09:12:39;;;;;;;28.55;14.10;;;;;;;-2.30;72.22;103560.59;7393173;19;20025;-57
2024/01/10 09:15:12;;;;;;;29.98;14.48;;;;;;;-2.21;71.80;103554.78;7392312;19;20018;-53
2024/01/10 09:17:44;;;;;;;27.30;13.75;;;;;;;-2.31;71.91;103548.47;7391528;19;20025;-53
2024/01/10 09:20:13;;;;;;;26.55;13.85;;;;;;;-2.13;71.96;103539.38;7391216;19;20022;-58
2024/01/10 09:22:41;;;;;;;29.98;14.20;;;;;;;-2.00;71.04;103549.22;7392423;19;20386;-58
2024/01/10 09:25:11;;;;;;;26.90;13.82;;;;;;;-2.09;70.95;103536.03;7395391;19;20031;-56
2024/01/10 09:27:43;;;;;;;24.63;12.60;;;;;;;-2.10;70.71;103539.44;7393447;19;20380;-53
2024/01/10 09:30:12;;;;;;;26.95;13.68;;;;;;;-2.03;70.56;103531.81;7390742;19;20026;-56
2024/01/10 09:32:40;;;;;;;21.83;11.63;;;;;;;-2.16;70.32;103536.72;7390909;19;20006;-53
2024/01/10 09:35:08;;;;;;;25.70;12.82;;;;;;;-2.06;69.87;103536.97;7391648;19;20018;-56
2024/01/10 09:37:37;;;;;;;25.25;12.35;;;;;;;-1.92;69.44;103531.22;7392129;19;20746;-58
2024/01/10 09:40:08;;;;;;;26.00;12.90;;;;;;;-2.10;68.98;103537.75;7389823;19;20017;-57
2024/01/10 09:42:37;;;;;;;23.75;12.23;;;;;;;-2.17;69.69;103528.06;7390884;19;20046;-58
2024/01/10 09:45:08;;;;;;;24.70;11.85;;;;;;;-2.15;69.21;103538.47;7391650;19;20023;-57
2024/01/10 09:47:37;;;;;;;22.80;11.80;;;;;;;-1.89;69.02;103546.88;7391627;19;20538;-53
2024/01/10 09:50:07;;;;;;;23.98;11.75;;;;;;;-2.01;67.84;103545.75;7390751;19;20018;-59
2024/01/10 09:52:42;;;;;;;24.55;11.80;;;;;;;-2.24;68.90;103542.59;7392292;19;20031;-53
2024/01/10 09:55:12;;;;;;;21.58;10.63;;;;;;;-1.92;68.35;103542.47;7392012;19;20130;-56
2024/01/10 09:57:40;;;;;;;22.55;11.88;;;;;;;-1.87;67.07;103535.69;7391972;19;20035;-56
2024/01/10 10:00:11;;;;;;;22.35;11.23;;;;;;;-1.78;67.41;103540.19;7389414;19;20027;-57
2024/01/10 10:02:40;;;;;;;22.58;10.98;;;;;;;-1.65;66.97;103536.16;7389950;19;20015;-58
2024/01/10 10:05:08;;;;;;;23.98;10.77;;;;;;;-1.62;66.12;103536.22;7390939;19;20407;-57
2024/01/10 10:07:47;;;;;;;19.52;11.07;;;;;;;-1.74;66.73;103532.50;7390677;19;20018;-56
2024/01/10 10:10:18;;;;;;;19.15;10.15;;;;;;;-1.78;66.01;103535.88;7388574;19;20367;-57
2024/01/10 10:12:53;;;;;;;20.60;10.13;;;;;;;-1.79;66.89;103533.25;7391584;19;20043;-57
2024/01/10 10:15:23;;;;;;;21.05;10.48;;;;;;;-1.59;66.20;103531.97;7398497;19;20356;-58
2024/01/10 10:17:53;;;;;;;18.95;9.93;;;;;;;-1.68;65.78;103530.88;7398486;19;20019;-58
2024/01/10 10:20:26;;;;;;;19.50;10.45;;;;;;;-1.56;66.28;103533.78;7393964;19;20039;-57
2024/01/10 10:23:00;;;;;;;20.80;10.15;;;;;;;-1.65;66.14;103538.75;7397804;19;20021;-57
2024/01/10 10:25:33;;;;;;;19.92;10.18;;;;;;;-1.48;65.32;103527.88;7397962;19;20030;-59
2024/01/10 10:28:03;;;;;;;20.80;9.95;;;;;;;-1.45;64.72;103532.28;7400335;19;20019;-59
2024/01/10 10:30:33;;;;;;;21.23;11.02;;;;;;;-1.33;64.17;103522.13;7394942;19;20108;-56
2024/01/10 10:33:03;;;;;;;28.33;11.07;;;;;;;-1.40;64.20;103525.44;7397987;19;20025;-59
2024/01/10 10:35:32;;;;;;;20.55;10.45;;;;;;;-1.36;63.97;103509.06;7397813;19;20025;-59
2024/01/10 10:38:11;;;;;;;21.73;10.40;;;;;;;-1.35;63.65;103522.94;7398259;19;20067;-58
2024/01/10 10:40:39;;;;;;;18.52;9.45;;;;;;;-1.56;64.01;103532.03;7395683;19;20058;-57
2024/01/10 10:43:14;;;;;;;18.17;9.05;;;;;;;-1.37;63.70;103520.31;7395856;19;20090;-59
2024/01/10 10:45:50;;;;;;;19.75;9.70;;;;;;;-1.41;63.67;103525.38;7397896;19;20096;-58
2024/01/10 10:48:20;;;;;;;17.30;9.73;;;;;;;-1.34;63.64;103509.94;7397108;19;20026;-58
2024/01/10 10:51:03;;;;;;;17.77;9.32;;;;;;;-1.26;63.99;103507.50;7397563;19;20019;-58
2024/01/10 10:53:34;;;;;;;17.73;9.35;;;;;;;-1.19;64.08;103503.31;7396707;19;20487;-58
2024/01/10 10:56:07;;;;;;;18.75;9.98;;;;;;;-1.07;63.89;103503.53;7397155;19;20022;-56
2024/01/10 10:58:40;;;;;;;17.23;9.52;;;;;;;-1.13;63.88;103499.13;7399589;19;20038;-58
2024/01/10 11:01:12;;;;;;;17.55;9.63;;;;;;;-1.26;63.99;103505.81;7396900;19;20550;-58
2024/01/10 11:03:47;;;;;;;17.33;8.73;;;;;;;-1.05;63.73;103499.25;7395842;19;20030;-57
2024/01/10 11:06:17;;;;;;;17.58;9.18;;;;;;;-1.00;63.80;103497.63;7396225;19;20018;-57
2024/01/10 11:08:55;;;;;;;18.27;9.52;;;;;;;-0.91;62.92;103503.00;7395499;19;20510;-59
2024/01/10 11:11:31;;;;;;;18.60;9.52;;;;;;;-0.83;63.21;103505.75;7396731;19;20022;-57
2024/01/10 11:14:38;;;;;;;17.48;9.45;;;;;;;-0.77;62.53;103495.44;7393775;19;20029;-58
2024/01/10 11:17:09;;;;;;;17.15;9.13;;;;;;;-0.87;63.12;103484.00;7394711;19;20036;-57
2024/01/10 11:20:03;;;;;;;19.80;9.20;;;;;;;-0.91;61.72;103499.53;7395141;19;20018;-58